sensor_id;sensor_type;location;lat;lon;timestamp;P1;durP1;ratioP1;P2;durP2;ratioP2
62338;SDS011;48368;53.406;6.214;2023-04-07T00:00:07;37.40;;;21.35;;
62338;SDS011;48368;53.406;6.214;2023-04-07T00:02:33;34.72;;;20.42;;
62338;SDS011;48368;53.406;6.214;2023-04-07T00:04:58;35.20;;;21.17;;
62338;SDS011;48368;53.406;6.214;2023-04-07T00:07:24;38.60;;;21.75;;
62338;SDS011;48368;53.406;6.214;2023-04-07T00:09:50;38.10;;;20.95;;
62338;SDS011;48368;53.406;6.214;2023-04-07T00:12:15;34.85;;;20.38;;
62338;SDS011;48368;53.406;6.214;2023-04-07T00:14:41;38.97;;;21.02;;
62338;SDS011;48368;53.406;6.214;2023-04-07T00:17:07;38.30;;;21.17;;
62338;SDS011;48368;53.406;6.214;2023-04-07T00:19:32;37.50;;;22.17;;
62338;SDS011;48368;53.406;6.214;2023-04-07T00:21:58;37.60;;;22.08;;
62338;SDS011;48368;53.406;6.214;2023-04-07T00:24:24;41.20;;;23.83;;
62338;SDS011;48368;53.406;6.214;2023-04-07T00:26:50;43.90;;;23.35;;
62338;SDS011;48368;53.406;6.214;2023-04-07T00:29:15;36.83;;;21.23;;
62338;SDS011;48368;53.406;6.214;2023-04-07T00:31:41;40.28;;;23.63;;
62338;SDS011;48368;53.406;6.214;2023-04-07T00:34:06;40.97;;;22.95;;
62338;SDS011;48368;53.406;6.214;2023-04-07T00:36:32;44.65;;;22.40;;
62338;SDS011;48368;53.406;6.214;2023-04-07T00:38:58;45.53;;;25.08;;
62338;SDS011;48368;53.406;6.214;2023-04-07T00:41:23;45.83;;;25.13;;
62338;SDS011;48368;53.406;6.214;2023-04-07T00:43:49;48.38;;;26.58;;
62338;SDS011;48368;53.406;6.214;2023-04-07T00:46:16;46.55;;;26.08;;
62338;SDS011;48368;53.406;6.214;2023-04-07T00:48:43;46.13;;;24.27;;
62338;SDS011;48368;53.406;6.214;2023-04-07T00:51:09;46.97;;;25.23;;
62338;SDS011;48368;53.406;6.214;2023-04-07T00:53:35;44.58;;;24.98;;
62338;SDS011;48368;53.406;6.214;2023-04-07T00:56:01;45.30;;;25.73;;
62338;SDS011;48368;53.406;6.214;2023-04-07T00:58:27;52.33;;;26.02;;
62338;SDS011;48368;53.406;6.214;2023-04-07T01:00:55;43.20;;;24.58;;
62338;SDS011;48368;53.406;6.214;2023-04-07T01:06:16;44.90;;;26.35;;
62338;SDS011;48368;53.406;6.214;2023-04-07T01:08:48;51.28;;;26.55;;
62338;SDS011;48368;53.406;6.214;2023-04-07T01:11:23;50.22;;;25.98;;
62338;SDS011;48368;53.406;6.214;2023-04-07T01:13:54;47.00;;;25.42;;
62338;SDS011;48368;53.406;6.214;2023-04-07T01:16:23;50.53;;;25.77;;
62338;SDS011;48368;53.406;6.214;2023-04-07T01:18:56;51.25;;;29.25;;
62338;SDS011;48368;53.406;6.214;2023-04-07T01:21:46;47.53;;;24.63;;
62338;SDS011;48368;53.406;6.214;2023-04-07T01:27:20;49.58;;;27.13;;
62338;SDS011;48368;53.406;6.214;2023-04-07T01:29:59;52.00;;;26.30;;
62338;SDS011;48368;53.406;6.214;2023-04-07T01:32:27;48.88;;;26.25;;
62338;SDS011;48368;53.406;6.214;2023-04-07T01:34:55;49.08;;;23.23;;
62338;SDS011;48368;53.406;6.214;2023-04-07T01:37:22;50.03;;;25.30;;
62338;SDS011;48368;53.406;6.214;2023-04-07T01:39:51;53.78;;;27.70;;
62338;SDS011;48368;53.406;6.214;2023-04-07T01:42:17;55.38;;;27.10;;
62338;SDS011;48368;53.406;6.214;2023-04-07T01:44:44;48.85;;;26.00;;
62338;SDS011;48368;53.406;6.214;2023-04-07T01:47:11;55.58;;;27.05;;
62338;SDS011;48368;53.406;6.214;2023-04-07T01:49:37;57.97;;;27.50;;
62338;SDS011;48368;53.406;6.214;2023-04-07T01:52:08;52.50;;;27.08;;
62338;SDS011;48368;53.406;6.214;2023-04-07T01:54:34;50.35;;;26.67;;
62338;SDS011;48368;53.406;6.214;2023-04-07T01:57:03;55.67;;;28.13;;
62338;SDS011;48368;53.406;6.214;2023-04-07T01:59:29;56.78;;;29.45;;
62338;SDS011;48368;53.406;6.214;2023-04-07T02:01:55;56.05;;;28.30;;
62338;SDS011;48368;53.406;6.214;2023-04-07T02:04:23;49.25;;;25.48;;
62338;SDS011;48368;53.406;6.214;2023-04-07T02:06:51;56.60;;;28.67;;
62338;SDS011;48368;53.406;6.214;2023-04-07T02:09:19;50.90;;;26.27;;
62338;SDS011;48368;53.406;6.214;2023-04-07T02:11:47;52.40;;;26.85;;
62338;SDS011;48368;53.406;6.214;2023-04-07T02:14:15;54.45;;;27.65;;
62338;SDS011;48368;53.406;6.214;2023-04-07T02:16:42;55.28;;;27.77;;
62338;SDS011;48368;53.406;6.214;2023-04-07T02:19:09;54.30;;;27.90;;
62338;SDS011;48368;53.406;6.214;2023-04-07T02:21:35;52.60;;;26.38;;
62338;SDS011;48368;53.406;6.214;2023-04-07T02:24:01;54.83;;;25.95;;
62338;SDS011;48368;53.406;6.214;2023-04-07T02:26:33;55.08;;;28.13;;
62338;SDS011;48368;53.406;6.214;2023-04-07T02:29:00;58.20;;;28.58;;
62338;SDS011;48368;53.406;6.214;2023-04-07T02:31:26;55.58;;;27.35;;
62338;SDS011;48368;53.406;6.214;2023-04-07T02:33:52;54.50;;;28.30;;
62338;SDS011;48368;53.406;6.214;2023-04-07T02:36:18;50.22;;;25.95;;
62338;SDS011;48368;53.406;6.214;2023-04-07T02:38:43;49.75;;;26.52;;
62338;SDS011;48368;53.406;6.214;2023-04-07T02:41:09;51.90;;;26.45;;
62338;SDS011;48368;53.406;6.214;2023-04-07T02:43:34;53.50;;;27.23;;
62338;SDS011;48368;53.406;6.214;2023-04-07T02:46:00;52.80;;;25.95;;
62338;SDS011;48368;53.406;6.214;2023-04-07T02:48:26;51.58;;;27.27;;
62338;SDS011;48368;53.406;6.214;2023-04-07T02:50:54;51.15;;;26.48;;
62338;SDS011;48368;53.406;6.214;2023-04-07T02:53:19;51.75;;;25.92;;
62338;SDS011;48368;53.406;6.214;2023-04-07T02:55:45;53.58;;;26.50;;
62338;SDS011;48368;53.406;6.214;2023-04-07T02:58:11;51.72;;;25.23;;
62338;SDS011;48368;53.406;6.214;2023-04-07T03:00:37;49.58;;;25.17;;
62338;SDS011;48368;53.406;6.214;2023-04-07T03:03:02;50.40;;;24.95;;
62338;SDS011;48368;53.406;6.214;2023-04-07T03:05:28;49.92;;;26.05;;
62338;SDS011;48368;53.406;6.214;2023-04-07T03:07:53;55.63;;;26.88;;
62338;SDS011;48368;53.406;6.214;2023-04-07T03:10:19;48.47;;;24.83;;
62338;SDS011;48368;53.406;6.214;2023-04-07T03:12:45;48.20;;;26.45;;
62338;SDS011;48368;53.406;6.214;2023-04-07T03:15:11;52.92;;;26.38;;
62338;SDS011;48368;53.406;6.214;2023-04-07T03:17:36;49.05;;;26.33;;
62338;SDS011;48368;53.406;6.214;2023-04-07T03:20:02;48.45;;;23.65;;
62338;SDS011;48368;53.406;6.214;2023-04-07T03:22:28;49.50;;;25.33;;
62338;SDS011;48368;53.406;6.214;2023-04-07T03:24:54;49.08;;;26.10;;
62338;SDS011;48368;53.406;6.214;2023-04-07T03:27:20;52.65;;;27.73;;
62338;SDS011;48368;53.406;6.214;2023-04-07T03:29:45;53.00;;;27.02;;
62338;SDS011;48368;53.406;6.214;2023-04-07T03:32:11;51.05;;;25.77;;
62338;SDS011;48368;53.406;6.214;2023-04-07T03:34:37;49.75;;;26.98;;
62338;SDS011;48368;53.406;6.214;2023-04-07T03:37:02;52.78;;;26.48;;
62338;SDS011;48368;53.406;6.214;2023-04-07T03:39:28;50.83;;;25.60;;
62338;SDS011;48368;53.406;6.214;2023-04-07T03:41:54;48.13;;;26.13;;
62338;SDS011;48368;53.406;6.214;2023-04-07T03:44:20;48.28;;;24.65;;
62338;SDS011;48368;53.406;6.214;2023-04-07T03:46:45;48.92;;;26.02;;
62338;SDS011;48368;53.406;6.214;2023-04-07T03:49:12;52.92;;;27.90;;
62338;SDS011;48368;53.406;6.214;2023-04-07T03:51:38;50.13;;;25.45;;
62338;SDS011;48368;53.406;6.214;2023-04-07T03:54:04;50.50;;;26.50;;
62338;SDS011;48368;53.406;6.214;2023-04-07T03:56:30;52.58;;;26.75;;
62338;SDS011;48368;53.406;6.214;2023-04-07T03:58:56;54.80;;;26.92;;
62338;SDS011;48368;53.406;6.214;2023-04-07T04:01:21;51.25;;;24.83;;
62338;SDS011;48368;53.406;6.214;2023-04-07T04:03:48;52.92;;;27.90;;
62338;SDS011;48368;53.406;6.214;2023-04-07T04:06:13;53.88;;;27.55;;
62338;SDS011;48368;53.406;6.214;2023-04-07T04:08:39;56.20;;;28.73;;
62338;SDS011;48368;53.406;6.214;2023-04-07T04:11:05;55.58;;;27.95;;
62338;SDS011;48368;53.406;6.214;2023-04-07T04:13:30;52.03;;;27.75;;
62338;SDS011;48368;53.406;6.214;2023-04-07T04:15:56;56.53;;;30.20;;
62338;SDS011;48368;53.406;6.214;2023-04-07T04:18:22;58.90;;;31.67;;
62338;SDS011;48368;53.406;6.214;2023-04-07T04:20:47;62.47;;;32.58;;
62338;SDS011;48368;53.406;6.214;2023-04-07T04:23:13;61.60;;;29.75;;
62338;SDS011;48368;53.406;6.214;2023-04-07T04:25:40;56.60;;;29.48;;
62338;SDS011;48368;53.406;6.214;2023-04-07T04:28:05;59.50;;;29.65;;
62338;SDS011;48368;53.406;6.214;2023-04-07T04:30:31;60.17;;;30.60;;
62338;SDS011;48368;53.406;6.214;2023-04-07T04:32:57;59.97;;;29.35;;
62338;SDS011;48368;53.406;6.214;2023-04-07T04:35:22;58.53;;;29.58;;
62338;SDS011;48368;53.406;6.214;2023-04-07T04:37:48;58.22;;;26.83;;
62338;SDS011;48368;53.406;6.214;2023-04-07T04:40:14;57.53;;;28.88;;
62338;SDS011;48368;53.406;6.214;2023-04-07T04:42:40;53.85;;;27.58;;
62338;SDS011;48368;53.406;6.214;2023-04-07T04:45:05;55.50;;;28.23;;
62338;SDS011;48368;53.406;6.214;2023-04-07T04:47:32;58.03;;;29.90;;
62338;SDS011;48368;53.406;6.214;2023-04-07T04:49:57;55.88;;;30.35;;
62338;SDS011;48368;53.406;6.214;2023-04-07T04:52:23;54.25;;;27.83;;
62338;SDS011;48368;53.406;6.214;2023-04-07T04:54:48;56.83;;;29.30;;
62338;SDS011;48368;53.406;6.214;2023-04-07T04:57:14;50.97;;;26.40;;
62338;SDS011;48368;53.406;6.214;2023-04-07T04:59:40;51.50;;;27.52;;
62338;SDS011;48368;53.406;6.214;2023-04-07T05:02:06;58.42;;;29.83;;
62338;SDS011;48368;53.406;6.214;2023-04-07T05:04:32;57.08;;;29.50;;
62338;SDS011;48368;53.406;6.214;2023-04-07T05:06:58;57.53;;;30.23;;
62338;SDS011;48368;53.406;6.214;2023-04-07T05:09:23;59.40;;;29.17;;
62338;SDS011;48368;53.406;6.214;2023-04-07T05:11:49;60.63;;;29.88;;
62338;SDS011;48368;53.406;6.214;2023-04-07T05:14:14;58.45;;;30.02;;
62338;SDS011;48368;53.406;6.214;2023-04-07T05:16:40;54.47;;;27.50;;
62338;SDS011;48368;53.406;6.214;2023-04-07T05:19:06;53.75;;;28.23;;
62338;SDS011;48368;53.406;6.214;2023-04-07T05:21:31;54.25;;;27.90;;
62338;SDS011;48368;53.406;6.214;2023-04-07T05:23:57;55.97;;;29.80;;
62338;SDS011;48368;53.406;6.214;2023-04-07T05:26:23;59.95;;;29.27;;
62338;SDS011;48368;53.406;6.214;2023-04-07T05:28:48;52.47;;;28.50;;
62338;SDS011;48368;53.406;6.214;2023-04-07T05:31:14;59.65;;;30.33;;
62338;SDS011;48368;53.406;6.214;2023-04-07T05:33:40;50.58;;;29.00;;
62338;SDS011;48368;53.406;6.214;2023-04-07T05:36:06;51.83;;;26.83;;
62338;SDS011;48368;53.406;6.214;2023-04-07T05:38:31;53.30;;;26.85;;
62338;SDS011;48368;53.406;6.214;2023-04-07T05:40:57;50.95;;;27.05;;
62338;SDS011;48368;53.406;6.214;2023-04-07T05:43:23;53.47;;;26.50;;
62338;SDS011;48368;53.406;6.214;2023-04-07T05:45:48;49.75;;;26.83;;
62338;SDS011;48368;53.406;6.214;2023-04-07T05:48:14;49.70;;;26.75;;
62338;SDS011;48368;53.406;6.214;2023-04-07T05:50:40;51.55;;;26.63;;
62338;SDS011;48368;53.406;6.214;2023-04-07T05:53:06;51.47;;;27.77;;
62338;SDS011;48368;53.406;6.214;2023-04-07T05:55:32;46.25;;;27.08;;
62338;SDS011;48368;53.406;6.214;2023-04-07T05:57:58;48.95;;;26.48;;
62338;SDS011;48368;53.406;6.214;2023-04-07T06:00:23;48.58;;;25.42;;
62338;SDS011;48368;53.406;6.214;2023-04-07T06:02:49;47.17;;;25.52;;
62338;SDS011;48368;53.406;6.214;2023-04-07T06:05:15;53.08;;;27.00;;
62338;SDS011;48368;53.406;6.214;2023-04-07T06:07:41;47.03;;;26.52;;
62338;SDS011;48368;53.406;6.214;2023-04-07T06:10:07;46.33;;;25.10;;
62338;SDS011;48368;53.406;6.214;2023-04-07T06:12:32;47.80;;;25.08;;
62338;SDS011;48368;53.406;6.214;2023-04-07T06:14:58;48.85;;;25.13;;
62338;SDS011;48368;53.406;6.214;2023-04-07T06:17:24;51.05;;;26.52;;
62338;SDS011;48368;53.406;6.214;2023-04-07T06:19:49;48.63;;;26.50;;
62338;SDS011;48368;53.406;6.214;2023-04-07T06:22:15;45.75;;;26.73;;
62338;SDS011;48368;53.406;6.214;2023-04-07T06:24:41;45.58;;;26.50;;
62338;SDS011;48368;53.406;6.214;2023-04-07T06:27:06;49.67;;;28.10;;
62338;SDS011;48368;53.406;6.214;2023-04-07T06:29:32;50.08;;;27.40;;
62338;SDS011;48368;53.406;6.214;2023-04-07T06:31:58;50.15;;;26.05;;
62338;SDS011;48368;53.406;6.214;2023-04-07T06:34:25;48.75;;;28.00;;
62338;SDS011;48368;53.406;6.214;2023-04-07T06:36:50;53.28;;;28.60;;
62338;SDS011;48368;53.406;6.214;2023-04-07T06:39:16;50.25;;;27.55;;
62338;SDS011;48368;53.406;6.214;2023-04-07T06:41:42;43.88;;;24.83;;
62338;SDS011;48368;53.406;6.214;2023-04-07T06:44:08;44.08;;;24.88;;
62338;SDS011;48368;53.406;6.214;2023-04-07T06:46:35;49.72;;;24.90;;
62338;SDS011;48368;53.406;6.214;2023-04-07T06:49:01;46.53;;;26.55;;
62338;SDS011;48368;53.406;6.214;2023-04-07T06:51:27;48.88;;;26.65;;
62338;SDS011;48368;53.406;6.214;2023-04-07T06:53:55;46.15;;;25.98;;
62338;SDS011;48368;53.406;6.214;2023-04-07T06:56:21;42.03;;;25.23;;
62338;SDS011;48368;53.406;6.214;2023-04-07T06:58:47;45.75;;;25.98;;
62338;SDS011;48368;53.406;6.214;2023-04-07T07:01:13;47.83;;;24.83;;
62338;SDS011;48368;53.406;6.214;2023-04-07T07:03:39;41.38;;;22.88;;
62338;SDS011;48368;53.406;6.214;2023-04-07T07:06:05;43.70;;;24.10;;
62338;SDS011;48368;53.406;6.214;2023-04-07T07:08:31;44.83;;;26.50;;
62338;SDS011;48368;53.406;6.214;2023-04-07T07:10:57;43.42;;;24.50;;
62338;SDS011;48368;53.406;6.214;2023-04-07T07:13:23;43.88;;;24.55;;
62338;SDS011;48368;53.406;6.214;2023-04-07T07:15:52;43.90;;;24.05;;
62338;SDS011;48368;53.406;6.214;2023-04-07T07:18:19;43.50;;;23.95;;
62338;SDS011;48368;53.406;6.214;2023-04-07T07:20:44;40.92;;;23.75;;
62338;SDS011;48368;53.406;6.214;2023-04-07T07:23:10;41.08;;;24.05;;
62338;SDS011;48368;53.406;6.214;2023-04-07T07:25:36;45.97;;;24.05;;
62338;SDS011;48368;53.406;6.214;2023-04-07T07:28:02;45.22;;;24.98;;
62338;SDS011;48368;53.406;6.214;2023-04-07T07:30:28;42.78;;;23.85;;
62338;SDS011;48368;53.406;6.214;2023-04-07T07:32:54;39.92;;;23.92;;
62338;SDS011;48368;53.406;6.214;2023-04-07T07:35:20;40.55;;;24.35;;
62338;SDS011;48368;53.406;6.214;2023-04-07T07:37:47;41.92;;;25.20;;
62338;SDS011;48368;53.406;6.214;2023-04-07T07:40:13;45.30;;;25.27;;
62338;SDS011;48368;53.406;6.214;2023-04-07T07:42:39;39.97;;;24.27;;
62338;SDS011;48368;53.406;6.214;2023-04-07T07:45:08;42.55;;;25.35;;
62338;SDS011;48368;53.406;6.214;2023-04-07T07:47:34;42.40;;;25.02;;
62338;SDS011;48368;53.406;6.214;2023-04-07T07:50:02;41.28;;;23.88;;
62338;SDS011;48368;53.406;6.214;2023-04-07T07:52:29;41.20;;;26.02;;
62338;SDS011;48368;53.406;6.214;2023-04-07T07:54:54;44.40;;;25.30;;
62338;SDS011;48368;53.406;6.214;2023-04-07T07:57:20;41.30;;;24.60;;
62338;SDS011;48368;53.406;6.214;2023-04-07T07:59:46;41.08;;;23.67;;
62338;SDS011;48368;53.406;6.214;2023-04-07T08:02:11;39.13;;;23.42;;
62338;SDS011;48368;53.406;6.214;2023-04-07T08:04:37;42.90;;;24.92;;
62338;SDS011;48368;53.406;6.214;2023-04-07T08:07:03;38.72;;;24.67;;
62338;SDS011;48368;53.406;6.214;2023-04-07T08:09:29;40.22;;;24.15;;
62338;SDS011;48368;53.406;6.214;2023-04-07T08:11:56;39.63;;;23.30;;
62338;SDS011;48368;53.406;6.214;2023-04-07T08:14:22;38.92;;;23.08;;
62338;SDS011;48368;53.406;6.214;2023-04-07T08:16:48;35.10;;;21.85;;
62338;SDS011;48368;53.406;6.214;2023-04-07T08:19:13;34.88;;;21.88;;
62338;SDS011;48368;53.406;6.214;2023-04-07T08:21:39;36.67;;;21.15;;
62338;SDS011;48368;53.406;6.214;2023-04-07T08:24:07;35.38;;;22.17;;
62338;SDS011;48368;53.406;6.214;2023-04-07T08:26:34;33.22;;;20.52;;
62338;SDS011;48368;53.406;6.214;2023-04-07T08:29:00;31.58;;;19.88;;
62338;SDS011;48368;53.406;6.214;2023-04-07T08:31:25;36.35;;;20.58;;
62338;SDS011;48368;53.406;6.214;2023-04-07T08:33:51;35.63;;;20.80;;
62338;SDS011;48368;53.406;6.214;2023-04-07T08:36:22;34.25;;;21.88;;
62338;SDS011;48368;53.406;6.214;2023-04-07T08:38:48;38.35;;;22.17;;
62338;SDS011;48368;53.406;6.214;2023-04-07T08:41:22;39.17;;;23.75;;
62338;SDS011;48368;53.406;6.214;2023-04-07T08:43:53;39.00;;;23.80;;
62338;SDS011;48368;53.406;6.214;2023-04-07T08:46:21;37.15;;;24.35;;
62338;SDS011;48368;53.406;6.214;2023-04-07T08:48:50;39.92;;;23.88;;
62338;SDS011;48368;53.406;6.214;2023-04-07T08:51:17;42.58;;;24.63;;
62338;SDS011;48368;53.406;6.214;2023-04-07T08:53:51;38.83;;;22.63;;
62338;SDS011;48368;53.406;6.214;2023-04-07T08:56:21;41.03;;;22.75;;
62338;SDS011;48368;53.406;6.214;2023-04-07T08:58:48;44.47;;;25.02;;
62338;SDS011;48368;53.406;6.214;2023-04-07T09:01:13;42.35;;;24.52;;
62338;SDS011;48368;53.406;6.214;2023-04-07T09:03:41;44.50;;;25.83;;
62338;SDS011;48368;53.406;6.214;2023-04-07T09:06:08;47.20;;;26.23;;
62338;SDS011;48368;53.406;6.214;2023-04-07T09:08:35;49.63;;;26.17;;
62338;SDS011;48368;53.406;6.214;2023-04-07T09:11:01;45.47;;;25.17;;
62338;SDS011;48368;53.406;6.214;2023-04-07T09:13:26;44.40;;;26.10;;
62338;SDS011;48368;53.406;6.214;2023-04-07T09:15:52;40.13;;;25.63;;
62338;SDS011;48368;53.406;6.214;2023-04-07T09:18:18;47.30;;;26.45;;
62338;SDS011;48368;53.406;6.214;2023-04-07T09:20:54;40.17;;;24.63;;
62338;SDS011;48368;53.406;6.214;2023-04-07T09:23:31;46.05;;;26.33;;
62338;SDS011;48368;53.406;6.214;2023-04-07T09:25:58;38.05;;;23.15;;
62338;SDS011;48368;53.406;6.214;2023-04-07T09:28:47;42.35;;;24.85;;
62338;SDS011;48368;53.406;6.214;2023-04-07T09:31:12;40.72;;;25.98;;
62338;SDS011;48368;53.406;6.214;2023-04-07T09:33:38;44.00;;;25.50;;
62338;SDS011;48368;53.406;6.214;2023-04-07T09:36:04;39.33;;;22.90;;
62338;SDS011;48368;53.406;6.214;2023-04-07T09:38:32;38.70;;;23.55;;
62338;SDS011;48368;53.406;6.214;2023-04-07T09:41:04;37.80;;;23.42;;
62338;SDS011;48368;53.406;6.214;2023-04-07T09:43:34;37.72;;;23.40;;
62338;SDS011;48368;53.406;6.214;2023-04-07T09:46:12;34.55;;;23.00;;
62338;SDS011;48368;53.406;6.214;2023-04-07T09:48:39;39.88;;;24.23;;
62338;SDS011;48368;53.406;6.214;2023-04-07T09:51:15;38.92;;;24.35;;
62338;SDS011;48368;53.406;6.214;2023-04-07T09:53:49;37.65;;;23.90;;
62338;SDS011;48368;53.406;6.214;2023-04-07T09:56:22;37.75;;;24.48;;
62338;SDS011;48368;53.406;6.214;2023-04-07T09:58:48;41.85;;;25.20;;
62338;SDS011;48368;53.406;6.214;2023-04-07T10:01:17;37.70;;;24.98;;
62338;SDS011;48368;53.406;6.214;2023-04-07T10:03:45;37.20;;;24.23;;
62338;SDS011;48368;53.406;6.214;2023-04-07T10:06:14;38.90;;;23.85;;
62338;SDS011;48368;53.406;6.214;2023-04-07T10:08:41;37.83;;;24.17;;
62338;SDS011;48368;53.406;6.214;2023-04-07T10:11:07;38.03;;;23.95;;
62338;SDS011;48368;53.406;6.214;2023-04-07T10:13:34;34.78;;;21.48;;
62338;SDS011;48368;53.406;6.214;2023-04-07T10:16:02;32.38;;;21.60;;
62338;SDS011;48368;53.406;6.214;2023-04-07T10:18:30;29.65;;;19.83;;
62338;SDS011;48368;53.406;6.214;2023-04-07T10:20:59;29.48;;;18.83;;
62338;SDS011;48368;53.406;6.214;2023-04-07T10:26:17;29.02;;;18.92;;
62338;SDS011;48368;53.406;6.214;2023-04-07T10:28:48;31.38;;;19.08;;
62338;SDS011;48368;53.406;6.214;2023-04-07T10:31:17;29.92;;;18.40;;
62338;SDS011;48368;53.406;6.214;2023-04-07T10:33:48;31.02;;;18.60;;
62338;SDS011;48368;53.406;6.214;2023-04-07T10:36:16;28.55;;;18.45;;
62338;SDS011;48368;53.406;6.214;2023-04-07T10:39:17;27.75;;;18.92;;
62338;SDS011;48368;53.406;6.214;2023-04-07T10:41:36;28.45;;;18.88;;
62338;SDS011;48368;53.406;6.214;2023-04-07T10:44:03;25.40;;;17.25;;
62338;SDS011;48368;53.406;6.214;2023-04-07T10:47:31;26.95;;;19.05;;
62338;SDS011;48368;53.406;6.214;2023-04-07T10:49:25;26.63;;;17.73;;
62338;SDS011;48368;53.406;6.214;2023-04-07T10:52:36;25.90;;;17.40;;
62338;SDS011;48368;53.406;6.214;2023-04-07T10:54:37;30.92;;;17.40;;
62338;SDS011;48368;53.406;6.214;2023-04-07T10:57:07;24.48;;;16.42;;
62338;SDS011;48368;53.406;6.214;2023-04-07T10:59:36;26.80;;;17.25;;
62338;SDS011;48368;53.406;6.214;2023-04-07T11:04:42;25.35;;;16.10;;
62338;SDS011;48368;53.406;6.214;2023-04-07T11:07:09;22.33;;;15.30;;
62338;SDS011;48368;53.406;6.214;2023-04-07T11:09:41;22.02;;;15.38;;
62338;SDS011;48368;53.406;6.214;2023-04-07T11:12:07;22.17;;;14.95;;
62338;SDS011;48368;53.406;6.214;2023-04-07T11:14:33;22.63;;;15.10;;
62338;SDS011;48368;53.406;6.214;2023-04-07T11:17:02;22.13;;;15.73;;
62338;SDS011;48368;53.406;6.214;2023-04-07T11:19:28;27.00;;;18.05;;
62338;SDS011;48368;53.406;6.214;2023-04-07T11:22:14;23.38;;;16.02;;
62338;SDS011;48368;53.406;6.214;2023-04-07T11:24:40;23.58;;;16.75;;
62338;SDS011;48368;53.406;6.214;2023-04-07T11:27:13;25.77;;;17.38;;
62338;SDS011;48368;53.406;6.214;2023-04-07T11:29:39;23.98;;;16.15;;
62338;SDS011;48368;53.406;6.214;2023-04-07T11:32:05;25.10;;;16.52;;
62338;SDS011;48368;53.406;6.214;2023-04-07T11:34:32;23.35;;;16.30;;
62338;SDS011;48368;53.406;6.214;2023-04-07T11:37:17;27.90;;;18.10;;
62338;SDS011;48368;53.406;6.214;2023-04-07T11:39:53;26.50;;;16.98;;
62338;SDS011;48368;53.406;6.214;2023-04-07T11:42:33;24.83;;;16.08;;
62338;SDS011;48368;53.406;6.214;2023-04-07T11:45:00;21.90;;;15.98;;
62338;SDS011;48368;53.406;6.214;2023-04-07T11:47:32;22.27;;;15.52;;
62338;SDS011;48368;53.406;6.214;2023-04-07T11:50:02;24.20;;;16.70;;
62338;SDS011;48368;53.406;6.214;2023-04-07T11:52:28;22.17;;;15.73;;
62338;SDS011;48368;53.406;6.214;2023-04-07T11:55:20;22.63;;;14.70;;
62338;SDS011;48368;53.406;6.214;2023-04-07T11:57:48;27.15;;;16.52;;
62338;SDS011;48368;53.406;6.214;2023-04-07T12:00:15;28.15;;;16.42;;
62338;SDS011;48368;53.406;6.214;2023-04-07T12:02:42;23.38;;;15.05;;
62338;SDS011;48368;53.406;6.214;2023-04-07T12:05:08;24.20;;;15.73;;
62338;SDS011;48368;53.406;6.214;2023-04-07T12:07:38;23.40;;;15.15;;
62338;SDS011;48368;53.406;6.214;2023-04-07T12:12:44;21.25;;;14.80;;
62338;SDS011;48368;53.406;6.214;2023-04-07T12:15:11;21.85;;;14.98;;
62338;SDS011;48368;53.406;6.214;2023-04-07T12:17:37;23.17;;;14.32;;
62338;SDS011;48368;53.406;6.214;2023-04-07T12:20:08;24.10;;;16.45;;
62338;SDS011;48368;53.406;6.214;2023-04-07T12:22:34;22.00;;;14.95;;
62338;SDS011;48368;53.406;6.214;2023-04-07T12:24:59;21.90;;;14.43;;
62338;SDS011;48368;53.406;6.214;2023-04-07T12:27:25;23.92;;;14.55;;
62338;SDS011;48368;53.406;6.214;2023-04-07T12:29:52;22.52;;;14.90;;
62338;SDS011;48368;53.406;6.214;2023-04-07T12:32:17;23.55;;;14.85;;
62338;SDS011;48368;53.406;6.214;2023-04-07T12:34:43;20.27;;;14.57;;
62338;SDS011;48368;53.406;6.214;2023-04-07T12:37:09;21.38;;;14.43;;
62338;SDS011;48368;53.406;6.214;2023-04-07T12:39:34;22.52;;;13.77;;
62338;SDS011;48368;53.406;6.214;2023-04-07T12:42:02;18.60;;;14.07;;
62338;SDS011;48368;53.406;6.214;2023-04-07T12:44:29;18.17;;;12.60;;
62338;SDS011;48368;53.406;6.214;2023-04-07T12:46:55;19.55;;;13.05;;
62338;SDS011;48368;53.406;6.214;2023-04-07T12:49:20;18.67;;;13.35;;
62338;SDS011;48368;53.406;6.214;2023-04-07T12:51:46;18.52;;;13.15;;
62338;SDS011;48368;53.406;6.214;2023-04-07T12:54:19;17.98;;;12.25;;
62338;SDS011;48368;53.406;6.214;2023-04-07T12:56:45;17.92;;;13.32;;
62338;SDS011;48368;53.406;6.214;2023-04-07T12:59:10;18.60;;;12.60;;
62338;SDS011;48368;53.406;6.214;2023-04-07T13:01:37;19.13;;;12.95;;
62338;SDS011;48368;53.406;6.214;2023-04-07T13:04:02;22.38;;;13.50;;
62338;SDS011;48368;53.406;6.214;2023-04-07T13:06:28;19.55;;;12.77;;
62338;SDS011;48368;53.406;6.214;2023-04-07T13:08:54;16.67;;;12.48;;
62338;SDS011;48368;53.406;6.214;2023-04-07T13:11:20;18.00;;;12.75;;
62338;SDS011;48368;53.406;6.214;2023-04-07T13:13:46;18.30;;;13.45;;
62338;SDS011;48368;53.406;6.214;2023-04-07T13:16:11;17.42;;;12.43;;
62338;SDS011;48368;53.406;6.214;2023-04-07T13:18:37;20.40;;;13.07;;
62338;SDS011;48368;53.406;6.214;2023-04-07T13:21:04;16.95;;;12.10;;
62338;SDS011;48368;53.406;6.214;2023-04-07T13:23:30;16.38;;;12.63;;
62338;SDS011;48368;53.406;6.214;2023-04-07T13:25:55;15.95;;;11.98;;
62338;SDS011;48368;53.406;6.214;2023-04-07T13:28:21;15.23;;;12.00;;
62338;SDS011;48368;53.406;6.214;2023-04-07T13:30:47;18.27;;;13.35;;
62338;SDS011;48368;53.406;6.214;2023-04-07T13:33:12;17.08;;;12.00;;
62338;SDS011;48368;53.406;6.214;2023-04-07T13:35:38;18.83;;;14.25;;
62338;SDS011;48368;53.406;6.214;2023-04-07T13:38:04;16.88;;;13.70;;
62338;SDS011;48368;53.406;6.214;2023-04-07T13:40:29;19.77;;;14.23;;
62338;SDS011;48368;53.406;6.214;2023-04-07T13:42:55;16.30;;;13.15;;
62338;SDS011;48368;53.406;6.214;2023-04-07T13:45:22;16.27;;;11.98;;
62338;SDS011;48368;53.406;6.214;2023-04-07T13:47:48;16.80;;;12.35;;
62338;SDS011;48368;53.406;6.214;2023-04-07T13:50:13;15.73;;;12.40;;
62338;SDS011;48368;53.406;6.214;2023-04-07T13:52:39;16.48;;;12.52;;
62338;SDS011;48368;53.406;6.214;2023-04-07T13:55:05;16.58;;;12.30;;
62338;SDS011;48368;53.406;6.214;2023-04-07T13:57:31;18.13;;;12.63;;
62338;SDS011;48368;53.406;6.214;2023-04-07T13:59:57;16.77;;;11.13;;
62338;SDS011;48368;53.406;6.214;2023-04-07T14:02:24;16.90;;;12.40;;
62338;SDS011;48368;53.406;6.214;2023-04-07T14:04:51;17.38;;;12.45;;
62338;SDS011;48368;53.406;6.214;2023-04-07T14:07:17;16.00;;;12.23;;
62338;SDS011;48368;53.406;6.214;2023-04-07T14:09:43;16.85;;;12.98;;
62338;SDS011;48368;53.406;6.214;2023-04-07T14:12:10;19.45;;;13.75;;
62338;SDS011;48368;53.406;6.214;2023-04-07T14:14:36;16.98;;;12.52;;
62338;SDS011;48368;53.406;6.214;2023-04-07T14:17:01;15.60;;;12.85;;
62338;SDS011;48368;53.406;6.214;2023-04-07T14:19:27;17.10;;;12.73;;
62338;SDS011;48368;53.406;6.214;2023-04-07T14:21:53;17.15;;;13.60;;
62338;SDS011;48368;53.406;6.214;2023-04-07T14:24:19;17.17;;;13.05;;
62338;SDS011;48368;53.406;6.214;2023-04-07T14:26:45;19.75;;;15.57;;
62338;SDS011;48368;53.406;6.214;2023-04-07T14:29:12;26.75;;;16.95;;
62338;SDS011;48368;53.406;6.214;2023-04-07T14:31:38;21.65;;;16.42;;
62338;SDS011;48368;53.406;6.214;2023-04-07T14:34:04;19.13;;;14.65;;